sensor_id;sensor_type;location;lat;lon;timestamp;P1;durP1;ratioP1;P2;durP2;ratioP2
70369;SDS011;57790;51.356;-2.906;2023-05-28T00:02:12;9.75;;;3.20;;
70369;SDS011;57790;51.356;-2.906;2023-05-28T00:05:12;9.03;;;3.00;;
70369;SDS011;57790;51.356;-2.906;2023-05-28T00:08:13;9.23;;;2.80;;
70369;SDS011;57790;51.356;-2.906;2023-05-28T00:11:16;9.48;;;3.10;;
70369;SDS011;57790;51.356;-2.906;2023-05-28T00:14:16;10.27;;;3.27;;
70369;SDS011;57790;51.356;-2.906;2023-05-28T00:17:17;9.43;;;3.00;;
70369;SDS011;57790;51.356;-2.906;2023-05-28T00:20:18;9.00;;;2.92;;
70369;SDS011;57790;51.356;-2.906;2023-05-28T00:23:19;9.60;;;2.90;;
70369;SDS011;57790;51.356;-2.906;2023-05-28T00:26:19;10.35;;;3.42;;
70369;SDS011;57790;51.356;-2.906;2023-05-28T00:29:20;9.77;;;3.30;;
70369;SDS011;57790;51.356;-2.906;2023-05-28T00:32:20;9.43;;;3.40;;
70369;SDS011;57790;51.356;-2.906;2023-05-28T00:35:20;12.63;;;3.70;;
70369;SDS011;57790;51.356;-2.906;2023-05-28T00:38:21;10.20;;;3.50;;
70369;SDS011;57790;51.356;-2.906;2023-05-28T00:41:23;9.40;;;3.25;;
70369;SDS011;57790;51.356;-2.906;2023-05-28T00:44:23;9.10;;;3.33;;
70369;SDS011;57790;51.356;-2.906;2023-05-28T00:47:24;9.80;;;3.30;;
70369;SDS011;57790;51.356;-2.906;2023-05-28T00:50:24;9.60;;;3.60;;
70369;SDS011;57790;51.356;-2.906;2023-05-28T00:53:25;10.07;;;3.30;;
70369;SDS011;57790;51.356;-2.906;2023-05-28T00:56:26;10.13;;;3.53;;
70369;SDS011;57790;51.356;-2.906;2023-05-28T00:59:26;9.43;;;3.30;;
70369;SDS011;57790;51.356;-2.906;2023-05-28T01:02:28;10.80;;;3.87;;
70369;SDS011;57790;51.356;-2.906;2023-05-28T01:05:28;10.70;;;3.47;;
70369;SDS011;57790;51.356;-2.906;2023-05-28T01:08:31;9.90;;;3.17;;
70369;SDS011;57790;51.356;-2.906;2023-05-28T01:11:32;9.13;;;3.10;;
70369;SDS011;57790;51.356;-2.906;2023-05-28T01:14:35;9.98;;;3.10;;
70369;SDS011;57790;51.356;-2.906;2023-05-28T01:17:37;10.13;;;3.17;;
70369;SDS011;57790;51.356;-2.906;2023-05-28T01:20:40;10.05;;;3.22;;
70369;SDS011;57790;51.356;-2.906;2023-05-28T01:23:47;9.87;;;3.20;;
70369;SDS011;57790;51.356;-2.906;2023-05-28T01:26:48;11.30;;;3.10;;
70369;SDS011;57790;51.356;-2.906;2023-05-28T01:29:50;10.73;;;3.50;;
70369;SDS011;57790;51.356;-2.906;2023-05-28T01:32:50;10.23;;;3.20;;
70369;SDS011;57790;51.356;-2.906;2023-05-28T01:35:51;8.97;;;3.50;;
70369;SDS011;57790;51.356;-2.906;2023-05-28T01:38:56;10.63;;;3.38;;
70369;SDS011;57790;51.356;-2.906;2023-05-28T01:42:02;10.40;;;3.28;;
70369;SDS011;57790;51.356;-2.906;2023-05-28T01:45:03;9.85;;;3.20;;
70369;SDS011;57790;51.356;-2.906;2023-05-28T01:48:06;9.65;;;3.00;;
70369;SDS011;57790;51.356;-2.906;2023-05-28T01:51:07;10.83;;;3.53;;
70369;SDS011;57790;51.356;-2.906;2023-05-28T01:54:07;8.18;;;3.00;;
70369;SDS011;57790;51.356;-2.906;2023-05-28T01:57:08;8.17;;;2.80;;
70369;SDS011;57790;51.356;-2.906;2023-05-28T02:00:08;9.97;;;2.90;;
70369;SDS011;57790;51.356;-2.906;2023-05-28T02:03:10;9.82;;;3.30;;
70369;SDS011;57790;51.356;-2.906;2023-05-28T02:06:11;9.43;;;3.20;;
70369;SDS011;57790;51.356;-2.906;2023-05-28T02:09:12;9.77;;;3.35;;
70369;SDS011;57790;51.356;-2.906;2023-05-28T02:12:12;9.90;;;3.50;;
70369;SDS011;57790;51.356;-2.906;2023-05-28T02:15:12;8.67;;;2.90;;
70369;SDS011;57790;51.356;-2.906;2023-05-28T02:18:13;9.40;;;2.85;;
70369;SDS011;57790;51.356;-2.906;2023-05-28T02:21:14;9.03;;;2.93;;
70369;SDS011;57790;51.356;-2.906;2023-05-28T02:24:16;9.95;;;3.00;;
70369;SDS011;57790;51.356;-2.906;2023-05-28T02:27:17;10.80;;;3.17;;
70369;SDS011;57790;51.356;-2.906;2023-05-28T02:30:18;10.57;;;3.80;;
70369;SDS011;57790;51.356;-2.906;2023-05-28T02:33:18;9.67;;;3.23;;
70369;SDS011;57790;51.356;-2.906;2023-05-28T02:36:19;11.93;;;3.20;;
70369;SDS011;57790;51.356;-2.906;2023-05-28T02:39:21;10.25;;;2.97;;
70369;SDS011;57790;51.356;-2.906;2023-05-28T02:42:21;9.23;;;3.25;;
70369;SDS011;57790;51.356;-2.906;2023-05-28T02:45:22;10.87;;;3.20;;
70369;SDS011;57790;51.356;-2.906;2023-05-28T02:48:22;11.10;;;3.20;;
70369;SDS011;57790;51.356;-2.906;2023-05-28T02:51:23;11.97;;;2.87;;
70369;SDS011;57790;51.356;-2.906;2023-05-28T02:54:23;9.77;;;3.25;;
70369;SDS011;57790;51.356;-2.906;2023-05-28T02:57:23;9.90;;;3.10;;
70369;SDS011;57790;51.356;-2.906;2023-05-28T03:00:24;7.70;;;2.90;;
70369;SDS011;57790;51.356;-2.906;2023-05-28T03:03:25;9.80;;;3.10;;
70369;SDS011;57790;51.356;-2.906;2023-05-28T03:06:25;8.57;;;2.67;;
70369;SDS011;57790;51.356;-2.906;2023-05-28T03:09:26;8.93;;;2.67;;
70369;SDS011;57790;51.356;-2.906;2023-05-28T03:12:27;11.10;;;3.03;;
70369;SDS011;57790;51.356;-2.906;2023-05-28T03:15:27;8.70;;;2.87;;
70369;SDS011;57790;51.356;-2.906;2023-05-28T03:18:27;9.73;;;2.73;;
70369;SDS011;57790;51.356;-2.906;2023-05-28T03:21:28;8.47;;;2.60;;
70369;SDS011;57790;51.356;-2.906;2023-05-28T03:24:28;9.40;;;2.65;;
70369;SDS011;57790;51.356;-2.906;2023-05-28T03:27:30;9.03;;;2.67;;
70369;SDS011;57790;51.356;-2.906;2023-05-28T03:30:30;8.47;;;2.20;;
70369;SDS011;57790;51.356;-2.906;2023-05-28T03:33:31;8.73;;;2.57;;
70369;SDS011;57790;51.356;-2.906;2023-05-28T03:36:31;6.13;;;2.10;;
70369;SDS011;57790;51.356;-2.906;2023-05-28T03:39:32;7.33;;;2.20;;
70369;SDS011;57790;51.356;-2.906;2023-05-28T03:42:32;5.88;;;2.00;;
70369;SDS011;57790;51.356;-2.906;2023-05-28T03:45:33;7.87;;;2.30;;
70369;SDS011;57790;51.356;-2.906;2023-05-28T03:48:33;7.70;;;2.30;;
70369;SDS011;57790;51.356;-2.906;2023-05-28T03:51:33;7.70;;;2.00;;
70369;SDS011;57790;51.356;-2.906;2023-05-28T03:54:34;7.60;;;2.37;;
70369;SDS011;57790;51.356;-2.906;2023-05-28T03:57:34;7.60;;;1.97;;
70369;SDS011;57790;51.356;-2.906;2023-05-28T04:00:35;6.85;;;1.95;;
70369;SDS011;57790;51.356;-2.906;2023-05-28T04:03:35;6.63;;;2.00;;
70369;SDS011;57790;51.356;-2.906;2023-05-28T04:06:35;7.17;;;1.90;;
70369;SDS011;57790;51.356;-2.906;2023-05-28T04:09:36;6.15;;;1.60;;
70369;SDS011;57790;51.356;-2.906;2023-05-28T04:12:37;6.93;;;2.13;;
70369;SDS011;57790;51.356;-2.906;2023-05-28T04:15:37;7.10;;;1.90;;
70369;SDS011;57790;51.356;-2.906;2023-05-28T04:18:38;7.30;;;1.73;;
70369;SDS011;57790;51.356;-2.906;2023-05-28T04:21:38;6.97;;;1.80;;
70369;SDS011;57790;51.356;-2.906;2023-05-28T04:24:38;6.32;;;1.95;;
70369;SDS011;57790;51.356;-2.906;2023-05-28T04:27:39;7.50;;;1.80;;
70369;SDS011;57790;51.356;-2.906;2023-05-28T04:30:40;6.68;;;1.90;;
70369;SDS011;57790;51.356;-2.906;2023-05-28T04:33:41;8.73;;;2.23;;
70369;SDS011;57790;51.356;-2.906;2023-05-28T04:36:41;7.10;;;1.90;;
70369;SDS011;57790;51.356;-2.906;2023-05-28T04:39:43;7.38;;;1.90;;
70369;SDS011;57790;51.356;-2.906;2023-05-28T04:42:43;7.10;;;2.07;;
70369;SDS011;57790;51.356;-2.906;2023-05-28T04:45:44;6.17;;;1.63;;
70369;SDS011;57790;51.356;-2.906;2023-05-28T04:48:44;6.13;;;1.80;;
70369;SDS011;57790;51.356;-2.906;2023-05-28T04:51:45;6.83;;;1.80;;
70369;SDS011;57790;51.356;-2.906;2023-05-28T04:54:46;5.60;;;1.67;;
70369;SDS011;57790;51.356;-2.906;2023-05-28T04:57:46;5.90;;;1.90;;
70369;SDS011;57790;51.356;-2.906;2023-05-28T05:00:47;5.47;;;1.50;;
70369;SDS011;57790;51.356;-2.906;2023-05-28T05:03:48;8.13;;;1.98;;
70369;SDS011;57790;51.356;-2.906;2023-05-28T05:06:48;5.67;;;1.70;;
70369;SDS011;57790;51.356;-2.906;2023-05-28T05:09:49;5.17;;;1.43;;
70369;SDS011;57790;51.356;-2.906;2023-05-28T05:12:49;5.50;;;1.45;;
70369;SDS011;57790;51.356;-2.906;2023-05-28T05:15:50;4.57;;;1.40;;
70369;SDS011;57790;51.356;-2.906;2023-05-28T05:18:50;5.47;;;1.50;;
70369;SDS011;57790;51.356;-2.906;2023-05-28T05:21:51;4.50;;;1.47;;
70369;SDS011;57790;51.356;-2.906;2023-05-28T05:24:51;5.22;;;1.45;;
70369;SDS011;57790;51.356;-2.906;2023-05-28T05:27:51;6.77;;;1.43;;
70369;SDS011;57790;51.356;-2.906;2023-05-28T05:30:52;7.30;;;1.63;;
70369;SDS011;57790;51.356;-2.906;2023-05-28T05:33:52;4.83;;;1.30;;
70369;SDS011;57790;51.356;-2.906;2023-05-28T05:36:52;6.53;;;1.57;;
70369;SDS011;57790;51.356;-2.906;2023-05-28T05:39:53;5.73;;;1.40;;
70369;SDS011;57790;51.356;-2.906;2023-05-28T05:42:53;5.73;;;1.40;;
70369;SDS011;57790;51.356;-2.906;2023-05-28T05:45:53;4.43;;;1.30;;
70369;SDS011;57790;51.356;-2.906;2023-05-28T05:48:54;5.37;;;1.30;;
70369;SDS011;57790;51.356;-2.906;2023-05-28T05:51:54;5.00;;;1.30;;
70369;SDS011;57790;51.356;-2.906;2023-05-28T05:54:55;5.23;;;1.10;;
70369;SDS011;57790;51.356;-2.906;2023-05-28T05:57:55;4.85;;;1.30;;
70369;SDS011;57790;51.356;-2.906;2023-05-28T06:00:58;4.93;;;1.10;;
70369;SDS011;57790;51.356;-2.906;2023-05-28T06:03:58;6.18;;;1.50;;
70369;SDS011;57790;51.356;-2.906;2023-05-28T06:07:00;4.23;;;1.20;;
70369;SDS011;57790;51.356;-2.906;2023-05-28T06:10:04;5.47;;;1.40;;
70369;SDS011;57790;51.356;-2.906;2023-05-28T06:13:05;4.22;;;1.35;;
70369;SDS011;57790;51.356;-2.906;2023-05-28T06:16:05;6.50;;;1.73;;
70369;SDS011;57790;51.356;-2.906;2023-05-28T06:19:06;6.07;;;1.42;;
70369;SDS011;57790;51.356;-2.906;2023-05-28T06:22:07;4.47;;;1.10;;
70369;SDS011;57790;51.356;-2.906;2023-05-28T06:25:10;4.97;;;1.40;;
70369;SDS011;57790;51.356;-2.906;2023-05-28T06:28:11;4.27;;;1.20;;
70369;SDS011;57790;51.356;-2.906;2023-05-28T06:31:12;4.65;;;1.20;;
70369;SDS011;57790;51.356;-2.906;2023-05-28T06:34:12;4.90;;;1.13;;
70369;SDS011;57790;51.356;-2.906;2023-05-28T06:37:13;4.37;;;1.20;;
70369;SDS011;57790;51.356;-2.906;2023-05-28T06:40:13;4.50;;;1.40;;
70369;SDS011;57790;51.356;-2.906;2023-05-28T06:43:14;4.05;;;1.25;;
70369;SDS011;57790;51.356;-2.906;2023-05-28T06:46:14;4.67;;;1.23;;
70369;SDS011;57790;51.356;-2.906;2023-05-28T06:49:15;4.25;;;1.20;;
70369;SDS011;57790;51.356;-2.906;2023-05-28T06:52:16;7.47;;;1.43;;
70369;SDS011;57790;51.356;-2.906;2023-05-28T06:55:16;6.20;;;1.40;;
70369;SDS011;57790;51.356;-2.906;2023-05-28T06:58:17;4.73;;;1.40;;
70369;SDS011;57790;51.356;-2.906;2023-05-28T07:01:17;6.57;;;1.63;;
70369;SDS011;57790;51.356;-2.906;2023-05-28T07:04:17;4.72;;;1.30;;
70369;SDS011;57790;51.356;-2.906;2023-05-28T07:07:18;4.20;;;1.20;;
70369;SDS011;57790;51.356;-2.906;2023-05-28T07:10:18;5.10;;;1.30;;
70369;SDS011;57790;51.356;-2.906;2023-05-28T07:13:18;5.13;;;1.33;;
70369;SDS011;57790;51.356;-2.906;2023-05-28T07:16:19;4.70;;;1.30;;
70369;SDS011;57790;51.356;-2.906;2023-05-28T07:19:19;5.43;;;1.50;;
70369;SDS011;57790;51.356;-2.906;2023-05-28T07:22:20;5.03;;;1.20;;
70369;SDS011;57790;51.356;-2.906;2023-05-28T07:25:20;4.93;;;1.20;;
70369;SDS011;57790;51.356;-2.906;2023-05-28T07:28:20;5.07;;;1.30;;
70369;SDS011;57790;51.356;-2.906;2023-05-28T07:31:21;5.90;;;1.30;;
70369;SDS011;57790;51.356;-2.906;2023-05-28T07:34:22;5.25;;;1.52;;
70369;SDS011;57790;51.356;-2.906;2023-05-28T07:37:23;5.33;;;1.20;;
70369;SDS011;57790;51.356;-2.906;2023-05-28T07:40:23;5.23;;;1.30;;
70369;SDS011;57790;51.356;-2.906;2023-05-28T07:43:24;5.88;;;1.55;;
70369;SDS011;57790;51.356;-2.906;2023-05-28T07:46:24;5.83;;;1.60;;
70369;SDS011;57790;51.356;-2.906;2023-05-28T07:49:25;6.20;;;1.50;;
70369;SDS011;57790;51.356;-2.906;2023-05-28T07:52:25;5.00;;;1.30;;
70369;SDS011;57790;51.356;-2.906;2023-05-28T07:55:29;5.13;;;1.50;;
70369;SDS011;57790;51.356;-2.906;2023-05-28T07:58:30;5.28;;;1.30;;
70369;SDS011;57790;51.356;-2.906;2023-05-28T08:01:30;4.27;;;1.13;;
70369;SDS011;57790;51.356;-2.906;2023-05-28T08:04:31;5.13;;;1.20;;
70369;SDS011;57790;51.356;-2.906;2023-05-28T08:07:31;4.65;;;1.38;;
70369;SDS011;57790;51.356;-2.906;2023-05-28T08:10:32;5.90;;;1.53;;
70369;SDS011;57790;51.356;-2.906;2023-05-28T08:13:32;6.80;;;1.70;;
70369;SDS011;57790;51.356;-2.906;2023-05-28T08:16:33;4.82;;;1.40;;
70369;SDS011;57790;51.356;-2.906;2023-05-28T08:19:33;4.60;;;1.40;;
70369;SDS011;57790;51.356;-2.906;2023-05-28T08:22:33;4.93;;;1.40;;
70369;SDS011;57790;51.356;-2.906;2023-05-28T08:25:34;4.63;;;1.20;;
70369;SDS011;57790;51.356;-2.906;2023-05-28T08:28:35;5.07;;;1.40;;
70369;SDS011;57790;51.356;-2.906;2023-05-28T08:31:35;4.60;;;1.20;;
70369;SDS011;57790;51.356;-2.906;2023-05-28T08:34:35;5.40;;;1.30;;
70369;SDS011;57790;51.356;-2.906;2023-05-28T08:37:36;5.63;;;1.40;;
70369;SDS011;57790;51.356;-2.906;2023-05-28T08:40:38;5.30;;;1.27;;
70369;SDS011;57790;51.356;-2.906;2023-05-28T08:43:42;5.63;;;1.50;;
70369;SDS011;57790;51.356;-2.906;2023-05-28T08:46:43;5.53;;;1.40;;
70369;SDS011;57790;51.356;-2.906;2023-05-28T08:49:53;4.83;;;1.50;;
70369;SDS011;57790;51.356;-2.906;2023-05-28T08:52:54;4.43;;;1.52;;
70369;SDS011;57790;51.356;-2.906;2023-05-28T08:55:57;6.07;;;1.40;;
70369;SDS011;57790;51.356;-2.906;2023-05-28T08:58:57;6.20;;;1.60;;
70369;SDS011;57790;51.356;-2.906;2023-05-28T09:01:58;5.80;;;1.53;;
70369;SDS011;57790;51.356;-2.906;2023-05-28T09:04:59;4.93;;;1.55;;
70369;SDS011;57790;51.356;-2.906;2023-05-28T09:08:00;5.93;;;1.70;;
70369;SDS011;57790;51.356;-2.906;2023-05-28T09:11:13;5.03;;;1.53;;
70369;SDS011;57790;51.356;-2.906;2023-05-28T09:14:16;4.95;;;1.40;;
70369;SDS011;57790;51.356;-2.906;2023-05-28T09:17:32;5.70;;;1.50;;
70369;SDS011;57790;51.356;-2.906;2023-05-28T09:20:34;5.28;;;1.30;;
70369;SDS011;57790;51.356;-2.906;2023-05-28T09:23:34;5.37;;;1.40;;
70369;SDS011;57790;51.356;-2.906;2023-05-28T09:26:35;7.83;;;1.97;;
70369;SDS011;57790;51.356;-2.906;2023-05-28T09:29:35;5.93;;;1.80;;
70369;SDS011;57790;51.356;-2.906;2023-05-28T09:32:36;4.90;;;1.40;;
70369;SDS011;57790;51.356;-2.906;2023-05-28T09:35:36;7.80;;;2.00;;
70369;SDS011;57790;51.356;-2.906;2023-05-28T09:38:37;6.97;;;1.70;;
70369;SDS011;57790;51.356;-2.906;2023-05-28T09:41:41;4.97;;;1.50;;
70369;SDS011;57790;51.356;-2.906;2023-05-28T09:44:44;6.35;;;1.70;;
70369;SDS011;57790;51.356;-2.906;2023-05-28T09:47:45;7.27;;;1.63;;
70369;SDS011;57790;51.356;-2.906;2023-05-28T09:50:45;5.78;;;1.60;;
70369;SDS011;57790;51.356;-2.906;2023-05-28T09:53:47;8.02;;;1.80;;
70369;SDS011;57790;51.356;-2.906;2023-05-28T09:56:51;6.07;;;1.65;;
70369;SDS011;57790;51.356;-2.906;2023-05-28T09:59:53;5.73;;;1.63;;
70369;SDS011;57790;51.356;-2.906;2023-05-28T10:06:22;6.28;;;1.77;;
70369;SDS011;57790;51.356;-2.906;2023-05-28T10:09:24;5.60;;;1.77;;
70369;SDS011;57790;51.356;-2.906;2023-05-28T10:12:26;7.18;;;1.92;;
70369;SDS011;57790;51.356;-2.906;2023-05-28T10:15:32;6.13;;;1.70;;
70369;SDS011;57790;51.356;-2.906;2023-05-28T10:18:34;5.80;;;1.67;;
70369;SDS011;57790;51.356;-2.906;2023-05-28T10:21:37;5.82;;;1.83;;
70369;SDS011;57790;51.356;-2.906;2023-05-28T10:24:38;6.87;;;1.67;;
70369;SDS011;57790;51.356;-2.906;2023-05-28T10:27:45;7.40;;;1.85;;
70369;SDS011;57790;51.356;-2.906;2023-05-28T10:31:04;5.20;;;1.70;;
70369;SDS011;57790;51.356;-2.906;2023-05-28T10:34:16;6.90;;;1.80;;
70369;SDS011;57790;51.356;-2.906;2023-05-28T10:37:21;5.20;;;1.43;;
70369;SDS011;57790;51.356;-2.906;2023-05-28T10:40:23;6.88;;;1.73;;
70369;SDS011;57790;51.356;-2.906;2023-05-28T10:46:39;8.10;;;1.90;;
70369;SDS011;57790;51.356;-2.906;2023-05-28T10:49:57;7.23;;;1.83;;
70369;SDS011;57790;51.356;-2.906;2023-05-28T10:53:10;7.45;;;1.90;;
70369;SDS011;57790;51.356;-2.906;2023-05-28T10:56:12;7.03;;;2.30;;
70369;SDS011;57790;51.356;-2.906;2023-05-28T10:59:15;5.20;;;1.63;;
70369;SDS011;57790;51.356;-2.906;2023-05-28T11:02:16;5.67;;;1.90;;
70369;SDS011;57790;51.356;-2.906;2023-05-28T11:05:25;7.00;;;1.90;;
70369;SDS011;57790;51.356;-2.906;2023-05-28T11:08:25;7.13;;;1.90;;
70369;SDS011;57790;51.356;-2.906;2023-05-28T11:11:26;7.60;;;2.10;;
70369;SDS011;57790;51.356;-2.906;2023-05-28T11:14:36;5.72;;;1.70;;
70369;SDS011;57790;51.356;-2.906;2023-05-28T11:17:38;5.60;;;1.65;;
70369;SDS011;57790;51.356;-2.906;2023-05-28T11:20:39;7.27;;;2.20;;
70369;SDS011;57790;51.356;-2.906;2023-05-28T11:23:39;6.27;;;1.80;;
70369;SDS011;57790;51.356;-2.906;2023-05-28T11:26:40;5.97;;;1.80;;
70369;SDS011;57790;51.356;-2.906;2023-05-28T11:29:40;6.57;;;2.10;;
70369;SDS011;57790;51.356;-2.906;2023-05-28T11:32:41;7.60;;;2.00;;
70369;SDS011;57790;51.356;-2.906;2023-05-28T11:35:42;7.97;;;1.95;;
70369;SDS011;57790;51.356;-2.906;2023-05-28T11:38:43;6.50;;;2.00;;
70369;SDS011;57790;51.356;-2.906;2023-05-28T11:41:43;6.50;;;1.93;;
70369;SDS011;57790;51.356;-2.906;2023-05-28T11:44:47;6.37;;;2.13;;
70369;SDS011;57790;51.356;-2.906;2023-05-28T11:47:48;6.60;;;1.93;;
70369;SDS011;57790;51.356;-2.906;2023-05-28T11:50:55;7.13;;;1.88;;
70369;SDS011;57790;51.356;-2.906;2023-05-28T11:53:57;5.55;;;1.75;;
70369;SDS011;57790;51.356;-2.906;2023-05-28T11:56:57;6.77;;;1.87;;
70369;SDS011;57790;51.356;-2.906;2023-05-28T12:00:02;7.50;;;2.10;;
70369;SDS011;57790;51.356;-2.906;2023-05-28T12:03:25;5.88;;;1.88;;
70369;SDS011;57790;51.356;-2.906;2023-05-28T12:06:26;6.05;;;2.00;;
70369;SDS011;57790;51.356;-2.906;2023-05-28T12:09:26;7.93;;;2.07;;
70369;SDS011;57790;51.356;-2.906;2023-05-28T12:12:27;7.00;;;1.90;;
70369;SDS011;57790;51.356;-2.906;2023-05-28T12:15:28;6.50;;;1.90;;
70369;SDS011;57790;51.356;-2.906;2023-05-28T12:18:29;8.02;;;1.90;;
70369;SDS011;57790;51.356;-2.906;2023-05-28T12:21:29;6.90;;;2.20;;
70369;SDS011;57790;51.356;-2.906;2023-05-28T12:24:35;7.18;;;2.10;;
70369;SDS011;57790;51.356;-2.906;2023-05-28T12:27:36;5.67;;;1.73;;
70369;SDS011;57790;51.356;-2.906;2023-05-28T12:30:40;6.65;;;1.80;;
70369;SDS011;57790;51.356;-2.906;2023-05-28T12:33:41;6.45;;;2.05;;
70369;SDS011;57790;51.356;-2.906;2023-05-28T12:36:42;8.07;;;2.20;;
70369;SDS011;57790;51.356;-2.906;2023-05-28T12:39:42;7.40;;;2.20;;
70369;SDS011;57790;51.356;-2.906;2023-05-28T12:42:43;8.10;;;2.50;;
70369;SDS011;57790;51.356;-2.906;2023-05-28T12:45:43;6.20;;;1.98;;
70369;SDS011;57790;51.356;-2.906;2023-05-28T12:48:43;6.33;;;2.20;;
70369;SDS011;57790;51.356;-2.906;2023-05-28T12:51:44;7.67;;;2.43;;
70369;SDS011;57790;51.356;-2.906;2023-05-28T12:54:44;7.00;;;1.93;;
70369;SDS011;57790;51.356;-2.906;2023-05-28T12:57:45;8.43;;;2.40;;
70369;SDS011;57790;51.356;-2.906;2023-05-28T13:00:45;7.80;;;2.25;;
70369;SDS011;57790;51.356;-2.906;2023-05-28T13:03:45;8.07;;;2.37;;
70369;SDS011;57790;51.356;-2.906;2023-05-28T13:06:46;8.27;;;2.10;;
70369;SDS011;57790;51.356;-2.906;2023-05-28T13:09:47;6.60;;;2.40;;
70369;SDS011;57790;51.356;-2.906;2023-05-28T13:12:48;6.33;;;2.10;;
70369;SDS011;57790;51.356;-2.906;2023-05-28T13:15:48;7.70;;;2.33;;
70369;SDS011;57790;51.356;-2.906;2023-05-28T13:18:48;6.60;;;2.20;;
70369;SDS011;57790;51.356;-2.906;2023-05-28T13:21:49;7.20;;;2.20;;
70369;SDS011;57790;51.356;-2.906;2023-05-28T13:24:49;10.03;;;2.40;;
70369;SDS011;57790;51.356;-2.906;2023-05-28T13:27:50;7.00;;;2.30;;
70369;SDS011;57790;51.356;-2.906;2023-05-28T13:30:50;6.47;;;2.13;;
70369;SDS011;57790;51.356;-2.906;2023-05-28T13:33:51;6.60;;;2.10;;
70369;SDS011;57790;51.356;-2.906;2023-05-28T13:36:51;6.93;;;2.07;;
70369;SDS011;57790;51.356;-2.906;2023-05-28T13:39:51;8.40;;;2.50;;
70369;SDS011;57790;51.356;-2.906;2023-05-28T13:42:52;7.10;;;1.90;;
70369;SDS011;57790;51.356;-2.906;2023-05-28T13:45:52;6.10;;;2.08;;
70369;SDS011;57790;51.356;-2.906;2023-05-28T13:48:53;7.77;;;2.40;;
70369;SDS011;57790;51.356;-2.906;2023-05-28T13:51:53;7.97;;;1.90;;
70369;SDS011;57790;51.356;-2.906;2023-05-28T13:54:54;8.60;;;2.03;;
70369;SDS011;57790;51.356;-2.906;2023-05-28T13:57:54;6.13;;;2.17;;
70369;SDS011;57790;51.356;-2.906;2023-05-28T14:00:55;6.67;;;2.40;;
70369;SDS011;57790;51.356;-2.906;2023-05-28T14:03:55;6.50;;;1.90;;
70369;SDS011;57790;51.356;-2.906;2023-05-28T14:06:56;8.35;;;2.53;;
70369;SDS011;57790;51.356;-2.906;2023-05-28T14:09:56;6.43;;;1.90;;
70369;SDS011;57790;51.356;-2.906;2023-05-28T14:12:57;6.60;;;2.43;;
70369;SDS011;57790;51.356;-2.906;2023-05-28T14:15:57;6.53;;;2.10;;
70369;SDS011;57790;51.356;-2.906;2023-05-28T14:18:59;9.55;;;2.33;;
70369;SDS011;57790;51.356;-2.906;2023-05-28T14:22:00;8.45;;;2.40;;
70369;SDS011;57790;51.356;-2.906;2023-05-28T14:25:00;8.57;;;2.53;;
70369;SDS011;57790;51.356;-2.906;2023-05-28T14:28:01;7.33;;;2.33;;
70369;SDS011;57790;51.356;-2.906;2023-05-28T14:31:01;7.07;;;2.40;;
70369;SDS011;57790;51.356;-2.906;2023-05-28T14:34:02;8.45;;;2.20;;
70369;SDS011;57790;51.356;-2.906;2023-05-28T14:37:02;6.87;;;2.70;;
70369;SDS011;57790;51.356;-2.906;2023-05-28T14:40:03;6.77;;;2.30;;
70369;SDS011;57790;51.356;-2.906;2023-05-28T14:43:07;7.75;;;2.50;;
70369;SDS011;57790;51.356;-2.906;2023-05-28T14:46:07;9.17;;;2.57;;
70369;SDS011;57790;51.356;-2.906;2023-05-28T14:49:08;7.00;;;2.40;;
70369;SDS011;57790;51.356;-2.906;2023-05-28T14:52:27;8.40;;;2.60;;
70369;SDS011;57790;51.356;-2.906;2023-05-28T14:55:30;7.67;;;2.33;;
70369;SDS011;57790;51.356;-2.906;2023-05-28T14:58:30;7.25;;;2.70;;
70369;SDS011;57790;51.356;-2.906;2023-05-28T15:01:31;7.43;;;2.40;;
70369;SDS011;57790;51.356;-2.906;2023-05-28T15:04:31;6.83;;;2.30;;
70369;SDS011;57790;51.356;-2.906;2023-05-28T15:07:32;7.53;;;2.50;;
70369;SDS011;57790;51.356;-2.906;2023-05-28T15:10:32;6.80;;;2.33;;
70369;SDS011;57790;51.356;-2.906;2023-05-28T15:13:33;7.33;;;2.10;;
70369;SDS011;57790;51.356;-2.906;2023-05-28T15:16:33;8.20;;;2.70;;
70369;SDS011;57790;51.356;-2.906;2023-05-28T15:19:33;6.70;;;2.23;;
70369;SDS011;57790;51.356;-2.906;2023-05-28T15:22:34;7.90;;;2.40;;
70369;SDS011;57790;51.356;-2.906;2023-05-28T15:25:35;7.65;;;2.75;;
70369;SDS011;57790;51.356;-2.906;2023-05-28T15:28:36;7.40;;;2.40;;
70369;SDS011;57790;51.356;-2.906;2023-05-28T15:31:36;7.43;;;2.20;;
70369;SDS011;57790;51.356;-2.906;2023-05-28T15:34:37;9.27;;;2.80;;
70369;SDS011;57790;51.356;-2.906;2023-05-28T15:37:38;7.55;;;2.13;;
70369;SDS011;57790;51.356;-2.906;2023-05-28T15:40:39;8.15;;;2.78;;
70369;SDS011;57790;51.356;-2.906;2023-05-28T15:43:40;7.87;;;2.40;;
70369;SDS011;57790;51.356;-2.906;2023-05-28T15:46:43;7.65;;;2.28;;
70369;SDS011;57790;51.356;-2.906;2023-05-28T15:49:43;7.50;;;2.35;;
70369;SDS011;57790;51.356;-2.906;2023-05-28T15:52:44;7.70;;;2.50;;
70369;SDS011;57790;51.356;-2.906;2023-05-28T15:55:44;7.00;;;2.30;;
70369;SDS011;57790;51.356;-2.906;2023-05-28T15:58:45;6.93;;;2.50;;
70369;SDS011;57790;51.356;-2.906;2023-05-28T16:01:45;7.63;;;2.50;;
70369;SDS011;57790;51.356;-2.906;2023-05-28T16:04:50;7.10;;;2.60;;
70369;SDS011;57790;51.356;-2.906;2023-05-28T16:07:51;6.10;;;2.33;;
70369;SDS011;57790;51.356;-2.906;2023-05-28T16:10:51;6.27;;;2.03;;
70369;SDS011;57790;51.356;-2.906;2023-05-28T16:13:52;7.13;;;2.23;;
70369;SDS011;57790;51.356;-2.906;2023-05-28T16:16:55;7.28;;;2.30;;
70369;SDS011;57790;51.356;-2.906;2023-05-28T16:19:56;6.45;;;2.30;;
70369;SDS011;57790;51.356;-2.906;2023-05-28T16:22:57;8.77;;;2.57;;
70369;SDS011;57790;51.356;-2.906;2023-05-28T16:25:58;6.22;;;2.13;;
70369;SDS011;57790;51.356;-2.906;2023-05-28T16:28:59;5.97;;;2.20;;
70369;SDS011;57790;51.356;-2.906;2023-05-28T16:32:00;6.60;;;2.23;;
70369;SDS011;57790;51.356;-2.906;2023-05-28T16:35:00;7.23;;;2.40;;
70369;SDS011;57790;51.356;-2.906;2023-05-28T16:38:01;7.18;;;2.42;;
70369;SDS011;57790;51.356;-2.906;2023-05-28T16:41:02;7.07;;;2.70;;
70369;SDS011;57790;51.356;-2.906;2023-05-28T16:44:03;7.68;;;2.72;;
70369;SDS011;57790;51.356;-2.906;2023-05-28T16:47:04;7.93;;;2.33;;
70369;SDS011;57790;51.356;-2.906;2023-05-28T16:50:05;7.25;;;2.70;;
70369;SDS011;57790;51.356;-2.906;2023-05-28T16:53:07;7.68;;;2.60;;
70369;SDS011;57790;51.356;-2.906;2023-05-28T16:56:11;7.43;;;2.60;;
70369;SDS011;57790;51.356;-2.906;2023-05-28T16:59:12;7.07;;;2.80;;
70369;SDS011;57790;51.356;-2.906;2023-05-28T17:02:13;8.63;;;3.13;;
70369;SDS011;57790;51.356;-2.906;2023-05-28T17:05:13;7.75;;;2.83;;
70369;SDS011;57790;51.356;-2.906;2023-05-28T17:08:14;8.40;;;2.80;;
70369;SDS011;57790;51.356;-2.906;2023-05-28T17:11:14;8.57;;;2.80;;
70369;SDS011;57790;51.356;-2.906;2023-05-28T17:14:15;8.53;;;3.23;;
70369;SDS011;57790;51.356;-2.906;2023-05-28T17:17:15;8.40;;;2.47;;
70369;SDS011;57790;51.356;-2.906;2023-05-28T17:20:16;7.77;;;2.83;;
70369;SDS011;57790;51.356;-2.906;2023-05-28T17:23:16;8.18;;;2.90;;
70369;SDS011;57790;51.356;-2.906;2023-05-28T17:26:16;9.63;;;2.97;;
70369;SDS011;57790;51.356;-2.906;2023-05-28T17:29:17;10.50;;;2.93;;
70369;SDS011;57790;51.356;-2.906;2023-05-28T17:32:17;9.33;;;2.73;;
70369;SDS011;57790;51.356;-2.906;2023-05-28T17:35:18;12.23;;;3.00;;
70369;SDS011;57790;51.356;-2.906;2023-05-28T17:38:18;8.93;;;2.95;;
70369;SDS011;57790;51.356;-2.906;2023-05-28T17:41:19;8.70;;;2.80;;
70369;SDS011;57790;51.356;-2.906;2023-05-28T17:44:19;8.55;;;3.05;;
70369;SDS011;57790;51.356;-2.906;2023-05-28T17:47:23;10.03;;;2.83;;
70369;SDS011;57790;51.356;-2.906;2023-05-28T17:50:24;9.35;;;2.95;;
70369;SDS011;57790;51.356;-2.906;2023-05-28T17:53:24;11.37;;;3.00;;
70369;SDS011;57790;51.356;-2.906;2023-05-28T17:56:28;8.80;;;2.83;;
70369;SDS011;57790;51.356;-2.906;2023-05-28T17:59:32;10.30;;;3.10;;
70369;SDS011;57790;51.356;-2.906;2023-05-28T18:02:32;10.70;;;3.40;;